sensor_id;sensor_type;location;lat;lon;timestamp;P1;durP1;ratioP1;P2;durP2;ratioP2
62580;SDS011;48640;48.770;9.148;2023-07-02T00:00:05;4.80;;;2.85;;
62580;SDS011;48640;48.770;9.148;2023-07-02T00:02:33;4.90;;;2.60;;
62580;SDS011;48640;48.770;9.148;2023-07-02T00:05:01;4.15;;;2.70;;
62580;SDS011;48640;48.770;9.148;2023-07-02T00:07:33;4.60;;;2.88;;
62580;SDS011;48640;48.770;9.148;2023-07-02T00:10:04;3.80;;;2.90;;
62580;SDS011;48640;48.770;9.148;2023-07-02T00:12:32;3.50;;;2.53;;
62580;SDS011;48640;48.770;9.148;2023-07-02T00:14:59;3.30;;;2.60;;
62580;SDS011;48640;48.770;9.148;2023-07-02T00:17:29;4.97;;;3.03;;
62580;SDS011;48640;48.770;9.148;2023-07-02T00:19:59;4.95;;;2.50;;
62580;SDS011;48640;48.770;9.148;2023-07-02T00:22:33;3.65;;;2.17;;
62580;SDS011;48640;48.770;9.148;2023-07-02T00:25:01;5.05;;;2.67;;
62580;SDS011;48640;48.770;9.148;2023-07-02T00:27:30;3.33;;;2.42;;
62580;SDS011;48640;48.770;9.148;2023-07-02T00:29:58;4.90;;;3.25;;
62580;SDS011;48640;48.770;9.148;2023-07-02T00:32:25;4.38;;;2.63;;
62580;SDS011;48640;48.770;9.148;2023-07-02T00:34:52;3.35;;;2.53;;
62580;SDS011;48640;48.770;9.148;2023-07-02T00:37:18;5.15;;;2.30;;
62580;SDS011;48640;48.770;9.148;2023-07-02T00:39:47;6.15;;;2.55;;
62580;SDS011;48640;48.770;9.148;2023-07-02T00:42:14;3.83;;;3.20;;
62580;SDS011;48640;48.770;9.148;2023-07-02T00:44:41;4.70;;;2.97;;
62580;SDS011;48640;48.770;9.148;2023-07-02T00:47:08;3.83;;;2.90;;
62580;SDS011;48640;48.770;9.148;2023-07-02T00:49:35;4.05;;;2.30;;
62580;SDS011;48640;48.770;9.148;2023-07-02T00:52:04;3.65;;;2.20;;
62580;SDS011;48640;48.770;9.148;2023-07-02T00:54:32;3.92;;;2.40;;
62580;SDS011;48640;48.770;9.148;2023-07-02T00:57:00;5.03;;;2.58;;
62580;SDS011;48640;48.770;9.148;2023-07-02T00:59:28;7.20;;;2.75;;
62580;SDS011;48640;48.770;9.148;2023-07-02T01:01:59;3.65;;;2.10;;
62580;SDS011;48640;48.770;9.148;2023-07-02T01:04:26;4.95;;;2.67;;
62580;SDS011;48640;48.770;9.148;2023-07-02T01:06:53;3.90;;;2.63;;
62580;SDS011;48640;48.770;9.148;2023-07-02T01:09:22;3.92;;;2.38;;
62580;SDS011;48640;48.770;9.148;2023-07-02T01:11:53;5.07;;;2.78;;
62580;SDS011;48640;48.770;9.148;2023-07-02T01:14:24;4.18;;;2.78;;
62580;SDS011;48640;48.770;9.148;2023-07-02T01:16:52;3.83;;;2.10;;
62580;SDS011;48640;48.770;9.148;2023-07-02T01:19:22;3.73;;;2.57;;
62580;SDS011;48640;48.770;9.148;2023-07-02T01:22:08;4.18;;;2.38;;
62580;SDS011;48640;48.770;9.148;2023-07-02T01:24:40;5.30;;;2.50;;
62580;SDS011;48640;48.770;9.148;2023-07-02T01:27:08;3.38;;;2.30;;
62580;SDS011;48640;48.770;9.148;2023-07-02T01:29:37;4.70;;;2.53;;
62580;SDS011;48640;48.770;9.148;2023-07-02T01:32:06;3.22;;;1.92;;
62580;SDS011;48640;48.770;9.148;2023-07-02T01:34:36;3.88;;;2.50;;
62580;SDS011;48640;48.770;9.148;2023-07-02T01:37:04;6.18;;;2.58;;
62580;SDS011;48640;48.770;9.148;2023-07-02T01:39:35;3.72;;;2.40;;
62580;SDS011;48640;48.770;9.148;2023-07-02T01:42:08;7.05;;;2.58;;
62580;SDS011;48640;48.770;9.148;2023-07-02T01:44:37;4.18;;;2.30;;
62580;SDS011;48640;48.770;9.148;2023-07-02T01:47:04;4.25;;;2.38;;
62580;SDS011;48640;48.770;9.148;2023-07-02T01:49:32;4.13;;;2.70;;
62580;SDS011;48640;48.770;9.148;2023-07-02T01:51:59;4.90;;;2.58;;
62580;SDS011;48640;48.770;9.148;2023-07-02T01:54:28;4.55;;;2.63;;
62580;SDS011;48640;48.770;9.148;2023-07-02T01:56:55;4.07;;;2.30;;
62580;SDS011;48640;48.770;9.148;2023-07-02T01:59:22;3.88;;;2.28;;
62580;SDS011;48640;48.770;9.148;2023-07-02T02:01:49;3.10;;;2.33;;
62580;SDS011;48640;48.770;9.148;2023-07-02T02:04:16;3.95;;;2.65;;
62580;SDS011;48640;48.770;9.148;2023-07-02T02:06:43;4.75;;;2.67;;
62580;SDS011;48640;48.770;9.148;2023-07-02T02:09:12;4.18;;;2.67;;
62580;SDS011;48640;48.770;9.148;2023-07-02T02:11:42;3.67;;;2.47;;
62580;SDS011;48640;48.770;9.148;2023-07-02T02:14:10;4.18;;;2.58;;
62580;SDS011;48640;48.770;9.148;2023-07-02T02:16:38;3.58;;;2.17;;
62580;SDS011;48640;48.770;9.148;2023-07-02T02:19:05;3.75;;;2.45;;
62580;SDS011;48640;48.770;9.148;2023-07-02T02:21:32;2.75;;;2.17;;
62580;SDS011;48640;48.770;9.148;2023-07-02T02:24:03;6.50;;;2.28;;
62580;SDS011;48640;48.770;9.148;2023-07-02T02:26:45;4.65;;;2.30;;
62580;SDS011;48640;48.770;9.148;2023-07-02T02:29:12;3.05;;;1.95;;
62580;SDS011;48640;48.770;9.148;2023-07-02T02:31:42;4.00;;;2.15;;
62580;SDS011;48640;48.770;9.148;2023-07-02T02:34:09;7.10;;;2.38;;
62580;SDS011;48640;48.770;9.148;2023-07-02T02:36:43;4.85;;;2.38;;
62580;SDS011;48640;48.770;9.148;2023-07-02T02:39:11;4.43;;;2.13;;
62580;SDS011;48640;48.770;9.148;2023-07-02T02:44:09;3.97;;;2.28;;
62580;SDS011;48640;48.770;9.148;2023-07-02T02:46:37;4.35;;;2.60;;
62580;SDS011;48640;48.770;9.148;2023-07-02T02:49:07;5.03;;;3.05;;
62580;SDS011;48640;48.770;9.148;2023-07-02T02:51:34;3.78;;;2.10;;
62580;SDS011;48640;48.770;9.148;2023-07-02T02:54:01;3.75;;;1.98;;
62580;SDS011;48640;48.770;9.148;2023-07-02T02:56:28;5.30;;;2.20;;
62580;SDS011;48640;48.770;9.148;2023-07-02T02:58:55;5.13;;;2.20;;
62580;SDS011;48640;48.770;9.148;2023-07-02T03:01:27;3.47;;;2.00;;
62580;SDS011;48640;48.770;9.148;2023-07-02T03:03:57;4.82;;;2.30;;
62580;SDS011;48640;48.770;9.148;2023-07-02T03:06:24;5.03;;;2.78;;
62580;SDS011;48640;48.770;9.148;2023-07-02T03:08:51;2.95;;;2.08;;
62580;SDS011;48640;48.770;9.148;2023-07-02T03:11:20;3.92;;;2.30;;
62580;SDS011;48640;48.770;9.148;2023-07-02T03:13:47;4.78;;;2.00;;
62580;SDS011;48640;48.770;9.148;2023-07-02T03:16:14;3.97;;;2.33;;
62580;SDS011;48640;48.770;9.148;2023-07-02T03:18:42;4.63;;;2.40;;
62580;SDS011;48640;48.770;9.148;2023-07-02T03:21:09;5.30;;;2.40;;
62580;SDS011;48640;48.770;9.148;2023-07-02T03:23:36;5.18;;;2.30;;
62580;SDS011;48640;48.770;9.148;2023-07-02T03:26:04;5.90;;;2.83;;
62580;SDS011;48640;48.770;9.148;2023-07-02T03:28:31;6.38;;;2.47;;
62580;SDS011;48640;48.770;9.148;2023-07-02T03:30:59;5.82;;;2.83;;
62580;SDS011;48640;48.770;9.148;2023-07-02T03:33:26;4.65;;;2.50;;
62580;SDS011;48640;48.770;9.148;2023-07-02T03:35:54;4.95;;;2.92;;
62580;SDS011;48640;48.770;9.148;2023-07-02T03:38:29;4.43;;;2.83;;
62580;SDS011;48640;48.770;9.148;2023-07-02T03:40:57;7.22;;;3.00;;
62580;SDS011;48640;48.770;9.148;2023-07-02T03:43:26;7.60;;;3.30;;
62580;SDS011;48640;48.770;9.148;2023-07-02T03:45:53;6.72;;;3.20;;
62580;SDS011;48640;48.770;9.148;2023-07-02T03:48:20;5.95;;;2.88;;
62580;SDS011;48640;48.770;9.148;2023-07-02T03:50:46;4.38;;;2.85;;
62580;SDS011;48640;48.770;9.148;2023-07-02T03:55:44;4.97;;;3.00;;
62580;SDS011;48640;48.770;9.148;2023-07-02T03:58:14;5.75;;;3.30;;
62580;SDS011;48640;48.770;9.148;2023-07-02T04:00:44;6.25;;;3.13;;
62580;SDS011;48640;48.770;9.148;2023-07-02T04:05:42;7.03;;;3.10;;
62580;SDS011;48640;48.770;9.148;2023-07-02T04:08:09;6.07;;;3.35;;
62580;SDS011;48640;48.770;9.148;2023-07-02T04:10:38;7.47;;;3.65;;
62580;SDS011;48640;48.770;9.148;2023-07-02T04:13:05;7.30;;;3.33;;
62580;SDS011;48640;48.770;9.148;2023-07-02T04:15:32;7.03;;;3.63;;
62580;SDS011;48640;48.770;9.148;2023-07-02T04:17:59;9.65;;;3.88;;
62580;SDS011;48640;48.770;9.148;2023-07-02T04:20:26;4.72;;;3.10;;
62580;SDS011;48640;48.770;9.148;2023-07-02T04:22:53;7.95;;;3.35;;
62580;SDS011;48640;48.770;9.148;2023-07-02T04:25:22;6.68;;;2.97;;
62580;SDS011;48640;48.770;9.148;2023-07-02T04:27:51;7.10;;;3.67;;
62580;SDS011;48640;48.770;9.148;2023-07-02T04:30:21;7.32;;;3.65;;
62580;SDS011;48640;48.770;9.148;2023-07-02T04:32:48;5.07;;;2.95;;
62580;SDS011;48640;48.770;9.148;2023-07-02T04:35:18;5.05;;;3.33;;
62580;SDS011;48640;48.770;9.148;2023-07-02T04:37:46;9.80;;;4.03;;
62580;SDS011;48640;48.770;9.148;2023-07-02T04:40:13;6.45;;;3.78;;
62580;SDS011;48640;48.770;9.148;2023-07-02T04:42:41;5.30;;;3.53;;
62580;SDS011;48640;48.770;9.148;2023-07-02T04:45:13;8.55;;;4.05;;
62580;SDS011;48640;48.770;9.148;2023-07-02T04:47:42;5.53;;;3.28;;
62580;SDS011;48640;48.770;9.148;2023-07-02T04:50:09;6.43;;;3.65;;
62580;SDS011;48640;48.770;9.148;2023-07-02T04:52:44;5.05;;;3.40;;
62580;SDS011;48640;48.770;9.148;2023-07-02T04:55:12;5.28;;;3.30;;
62580;SDS011;48640;48.770;9.148;2023-07-02T04:57:47;5.60;;;3.33;;
62580;SDS011;48640;48.770;9.148;2023-07-02T05:00:18;6.72;;;3.45;;
62580;SDS011;48640;48.770;9.148;2023-07-02T05:02:54;6.32;;;2.90;;
62580;SDS011;48640;48.770;9.148;2023-07-02T05:05:21;6.78;;;3.47;;
62580;SDS011;48640;48.770;9.148;2023-07-02T05:07:48;7.38;;;2.78;;
62580;SDS011;48640;48.770;9.148;2023-07-02T05:10:15;9.57;;;3.65;;
62580;SDS011;48640;48.770;9.148;2023-07-02T05:12:41;6.45;;;3.25;;
62580;SDS011;48640;48.770;9.148;2023-07-02T05:15:09;7.00;;;2.92;;
62580;SDS011;48640;48.770;9.148;2023-07-02T05:17:38;6.30;;;2.90;;
62580;SDS011;48640;48.770;9.148;2023-07-02T05:20:06;10.93;;;3.75;;
62580;SDS011;48640;48.770;9.148;2023-07-02T05:22:33;6.20;;;3.08;;
62580;SDS011;48640;48.770;9.148;2023-07-02T05:25:03;7.07;;;3.55;;
62580;SDS011;48640;48.770;9.148;2023-07-02T05:27:32;6.47;;;3.47;;
62580;SDS011;48640;48.770;9.148;2023-07-02T05:29:59;5.57;;;3.28;;
62580;SDS011;48640;48.770;9.148;2023-07-02T05:32:26;6.97;;;2.85;;
62580;SDS011;48640;48.770;9.148;2023-07-02T05:34:54;5.95;;;3.40;;
62580;SDS011;48640;48.770;9.148;2023-07-02T05:37:21;6.20;;;3.25;;
62580;SDS011;48640;48.770;9.148;2023-07-02T05:39:49;6.22;;;3.47;;
62580;SDS011;48640;48.770;9.148;2023-07-02T05:42:15;6.25;;;3.63;;
62580;SDS011;48640;48.770;9.148;2023-07-02T05:44:46;8.35;;;4.03;;
62580;SDS011;48640;48.770;9.148;2023-07-02T05:47:15;9.57;;;4.03;;
62580;SDS011;48640;48.770;9.148;2023-07-02T05:49:44;6.65;;;3.45;;
62580;SDS011;48640;48.770;9.148;2023-07-02T05:52:15;6.85;;;3.70;;
62580;SDS011;48640;48.770;9.148;2023-07-02T05:54:44;6.35;;;3.88;;
62580;SDS011;48640;48.770;9.148;2023-07-02T05:57:11;7.35;;;3.88;;
62580;SDS011;48640;48.770;9.148;2023-07-02T05:59:38;6.50;;;3.30;;
62580;SDS011;48640;48.770;9.148;2023-07-02T06:02:05;6.63;;;3.97;;
62580;SDS011;48640;48.770;9.148;2023-07-02T06:04:32;8.77;;;3.85;;
62580;SDS011;48640;48.770;9.148;2023-07-02T06:06:59;8.38;;;3.72;;
62580;SDS011;48640;48.770;9.148;2023-07-02T06:09:30;7.78;;;3.90;;
62580;SDS011;48640;48.770;9.148;2023-07-02T06:11:57;10.13;;;4.75;;
62580;SDS011;48640;48.770;9.148;2023-07-02T06:14:24;13.93;;;5.55;;
62580;SDS011;48640;48.770;9.148;2023-07-02T06:16:52;8.00;;;4.43;;
62580;SDS011;48640;48.770;9.148;2023-07-02T06:19:22;7.32;;;4.25;;
62580;SDS011;48640;48.770;9.148;2023-07-02T06:21:49;8.05;;;4.63;;
62580;SDS011;48640;48.770;9.148;2023-07-02T06:24:16;11.48;;;6.10;;
62580;SDS011;48640;48.770;9.148;2023-07-02T06:26:46;7.80;;;5.22;;
62580;SDS011;48640;48.770;9.148;2023-07-02T06:29:13;9.48;;;4.97;;
62580;SDS011;48640;48.770;9.148;2023-07-02T06:31:40;6.72;;;4.88;;
62580;SDS011;48640;48.770;9.148;2023-07-02T06:34:07;10.82;;;5.63;;
62580;SDS011;48640;48.770;9.148;2023-07-02T06:36:34;9.68;;;5.68;;
62580;SDS011;48640;48.770;9.148;2023-07-02T06:39:01;9.40;;;6.07;;
62580;SDS011;48640;48.770;9.148;2023-07-02T06:41:28;9.38;;;6.00;;
62580;SDS011;48640;48.770;9.148;2023-07-02T06:44:11;11.35;;;7.13;;
62580;SDS011;48640;48.770;9.148;2023-07-02T06:46:38;9.95;;;6.45;;
62580;SDS011;48640;48.770;9.148;2023-07-02T06:49:05;11.55;;;6.45;;
62580;SDS011;48640;48.770;9.148;2023-07-02T06:51:33;10.40;;;6.25;;
62580;SDS011;48640;48.770;9.148;2023-07-02T06:54:00;9.02;;;5.97;;
62580;SDS011;48640;48.770;9.148;2023-07-02T06:56:27;11.10;;;6.53;;
62580;SDS011;48640;48.770;9.148;2023-07-02T06:58:54;13.77;;;6.43;;
62580;SDS011;48640;48.770;9.148;2023-07-02T07:01:22;14.60;;;6.90;;
62580;SDS011;48640;48.770;9.148;2023-07-02T07:03:49;11.23;;;6.57;;
62580;SDS011;48640;48.770;9.148;2023-07-02T07:06:16;13.20;;;7.60;;
62580;SDS011;48640;48.770;9.148;2023-07-02T07:08:43;11.25;;;6.38;;
62580;SDS011;48640;48.770;9.148;2023-07-02T07:11:14;11.32;;;6.60;;
62580;SDS011;48640;48.770;9.148;2023-07-02T07:13:40;12.07;;;6.18;;
62580;SDS011;48640;48.770;9.148;2023-07-02T07:16:08;15.05;;;7.85;;
62580;SDS011;48640;48.770;9.148;2023-07-02T07:18:44;14.60;;;8.02;;
62580;SDS011;48640;48.770;9.148;2023-07-02T07:21:11;13.80;;;7.57;;
62580;SDS011;48640;48.770;9.148;2023-07-02T07:23:39;17.45;;;9.27;;
62580;SDS011;48640;48.770;9.148;2023-07-02T07:26:06;13.68;;;8.57;;
62580;SDS011;48640;48.770;9.148;2023-07-02T07:28:33;17.30;;;9.77;;
62580;SDS011;48640;48.770;9.148;2023-07-02T07:31:00;17.02;;;10.07;;
62580;SDS011;48640;48.770;9.148;2023-07-02T07:33:27;13.65;;;8.68;;
62580;SDS011;48640;48.770;9.148;2023-07-02T07:35:56;14.18;;;8.90;;
62580;SDS011;48640;48.770;9.148;2023-07-02T07:38:23;15.93;;;10.05;;
62580;SDS011;48640;48.770;9.148;2023-07-02T07:40:51;14.73;;;9.20;;
62580;SDS011;48640;48.770;9.148;2023-07-02T07:43:20;15.25;;;8.98;;
62580;SDS011;48640;48.770;9.148;2023-07-02T07:45:48;18.70;;;8.98;;
62580;SDS011;48640;48.770;9.148;2023-07-02T07:48:15;15.82;;;9.65;;
62580;SDS011;48640;48.770;9.148;2023-07-02T07:50:41;13.65;;;9.32;;
62580;SDS011;48640;48.770;9.148;2023-07-02T07:53:10;16.88;;;9.18;;
62580;SDS011;48640;48.770;9.148;2023-07-02T07:55:37;14.52;;;9.65;;
62580;SDS011;48640;48.770;9.148;2023-07-02T07:58:04;16.65;;;8.80;;
62580;SDS011;48640;48.770;9.148;2023-07-02T08:00:31;14.70;;;9.18;;
62580;SDS011;48640;48.770;9.148;2023-07-02T08:02:58;15.07;;;9.13;;
62580;SDS011;48640;48.770;9.148;2023-07-02T08:05:25;15.93;;;8.77;;
62580;SDS011;48640;48.770;9.148;2023-07-02T08:07:53;13.60;;;8.38;;
62580;SDS011;48640;48.770;9.148;2023-07-02T08:10:21;16.92;;;9.35;;
62580;SDS011;48640;48.770;9.148;2023-07-02T08:12:57;13.85;;;9.43;;
62580;SDS011;48640;48.770;9.148;2023-07-02T08:15:23;12.05;;;8.77;;
62580;SDS011;48640;48.770;9.148;2023-07-02T08:17:52;15.50;;;9.48;;
62580;SDS011;48640;48.770;9.148;2023-07-02T08:20:22;17.30;;;10.35;;
62580;SDS011;48640;48.770;9.148;2023-07-02T08:22:50;14.10;;;9.13;;
62580;SDS011;48640;48.770;9.148;2023-07-02T08:25:18;18.40;;;10.13;;
62580;SDS011;48640;48.770;9.148;2023-07-02T08:27:48;12.88;;;8.80;;
62580;SDS011;48640;48.770;9.148;2023-07-02T08:30:16;14.57;;;9.63;;
62580;SDS011;48640;48.770;9.148;2023-07-02T08:32:45;13.55;;;8.95;;
62580;SDS011;48640;48.770;9.148;2023-07-02T08:35:12;11.97;;;9.23;;
62580;SDS011;48640;48.770;9.148;2023-07-02T08:37:40;16.27;;;9.60;;
62580;SDS011;48640;48.770;9.148;2023-07-02T08:40:14;14.25;;;9.57;;
62580;SDS011;48640;48.770;9.148;2023-07-02T08:42:43;15.93;;;10.20;;
62580;SDS011;48640;48.770;9.148;2023-07-02T08:45:20;14.30;;;10.00;;
62580;SDS011;48640;48.770;9.148;2023-07-02T08:47:51;15.60;;;8.75;;
62580;SDS011;48640;48.770;9.148;2023-07-02T08:50:20;16.70;;;9.63;;
62580;SDS011;48640;48.770;9.148;2023-07-02T08:52:47;12.27;;;8.52;;
62580;SDS011;48640;48.770;9.148;2023-07-02T08:55:16;13.15;;;8.73;;
62580;SDS011;48640;48.770;9.148;2023-07-02T08:57:46;14.70;;;9.10;;
62580;SDS011;48640;48.770;9.148;2023-07-02T09:00:20;13.77;;;9.00;;
62580;SDS011;48640;48.770;9.148;2023-07-02T09:02:49;11.32;;;7.63;;
62580;SDS011;48640;48.770;9.148;2023-07-02T09:05:16;15.05;;;8.15;;
62580;SDS011;48640;48.770;9.148;2023-07-02T09:07:43;12.02;;;8.60;;
62580;SDS011;48640;48.770;9.148;2023-07-02T09:10:11;10.48;;;8.13;;
62580;SDS011;48640;48.770;9.148;2023-07-02T09:12:39;11.43;;;8.50;;
62580;SDS011;48640;48.770;9.148;2023-07-02T09:15:06;10.13;;;8.05;;
62580;SDS011;48640;48.770;9.148;2023-07-02T09:17:38;13.00;;;8.98;;
62580;SDS011;48640;48.770;9.148;2023-07-02T09:20:06;11.18;;;7.78;;
62580;SDS011;48640;48.770;9.148;2023-07-02T09:22:33;14.50;;;8.10;;
62580;SDS011;48640;48.770;9.148;2023-07-02T09:25:01;13.52;;;8.48;;
62580;SDS011;48640;48.770;9.148;2023-07-02T09:27:35;13.68;;;8.45;;
62580;SDS011;48640;48.770;9.148;2023-07-02T09:30:07;11.25;;;8.82;;
62580;SDS011;48640;48.770;9.148;2023-07-02T09:32:35;11.50;;;8.07;;
62580;SDS011;48640;48.770;9.148;2023-07-02T09:35:04;12.57;;;9.07;;
62580;SDS011;48640;48.770;9.148;2023-07-02T09:37:31;12.95;;;7.18;;
62580;SDS011;48640;48.770;9.148;2023-07-02T09:39:58;14.00;;;8.38;;
62580;SDS011;48640;48.770;9.148;2023-07-02T09:42:26;18.88;;;7.50;;
62580;SDS011;48640;48.770;9.148;2023-07-02T09:44:54;11.35;;;7.82;;
62580;SDS011;48640;48.770;9.148;2023-07-02T09:47:23;9.82;;;7.63;;
62580;SDS011;48640;48.770;9.148;2023-07-02T09:49:55;11.23;;;8.32;;
62580;SDS011;48640;48.770;9.148;2023-07-02T09:52:28;13.75;;;8.38;;
62580;SDS011;48640;48.770;9.148;2023-07-02T09:54:59;13.65;;;8.38;;
62580;SDS011;48640;48.770;9.148;2023-07-02T09:57:26;13.20;;;8.93;;
62580;SDS011;48640;48.770;9.148;2023-07-02T09:59:56;11.75;;;9.02;;
62580;SDS011;48640;48.770;9.148;2023-07-02T10:02:24;11.02;;;8.13;;
62580;SDS011;48640;48.770;9.148;2023-07-02T10:04:51;13.50;;;8.85;;
62580;SDS011;48640;48.770;9.148;2023-07-02T10:07:28;12.43;;;8.40;;
62580;SDS011;48640;48.770;9.148;2023-07-02T10:09:57;12.23;;;8.18;;
62580;SDS011;48640;48.770;9.148;2023-07-02T10:12:24;11.63;;;7.85;;
62580;SDS011;48640;48.770;9.148;2023-07-02T10:14:53;11.38;;;8.25;;
62580;SDS011;48640;48.770;9.148;2023-07-02T10:17:24;12.63;;;8.55;;
62580;SDS011;48640;48.770;9.148;2023-07-02T10:19:53;13.07;;;8.88;;
62580;SDS011;48640;48.770;9.148;2023-07-02T10:22:21;14.82;;;10.23;;
62580;SDS011;48640;48.770;9.148;2023-07-02T10:24:53;13.90;;;10.00;;
62580;SDS011;48640;48.770;9.148;2023-07-02T10:27:32;13.40;;;8.48;;
62580;SDS011;48640;48.770;9.148;2023-07-02T10:30:00;12.40;;;9.35;;
62580;SDS011;48640;48.770;9.148;2023-07-02T10:32:28;11.93;;;8.70;;
62580;SDS011;48640;48.770;9.148;2023-07-02T10:34:56;14.07;;;9.77;;
62580;SDS011;48640;48.770;9.148;2023-07-02T10:37:23;13.10;;;10.10;;
62580;SDS011;48640;48.770;9.148;2023-07-02T10:39:50;14.05;;;9.90;;
62580;SDS011;48640;48.770;9.148;2023-07-02T10:42:19;11.95;;;9.45;;
62580;SDS011;48640;48.770;9.148;2023-07-02T10:44:47;12.73;;;9.52;;
62580;SDS011;48640;48.770;9.148;2023-07-02T10:47:15;16.58;;;10.20;;
62580;SDS011;48640;48.770;9.148;2023-07-02T10:49:44;16.35;;;9.77;;
62580;SDS011;48640;48.770;9.148;2023-07-02T10:52:11;14.13;;;10.20;;
62580;SDS011;48640;48.770;9.148;2023-07-02T10:54:39;13.02;;;9.38;;
62580;SDS011;48640;48.770;9.148;2023-07-02T10:57:09;14.85;;;9.18;;
62580;SDS011;48640;48.770;9.148;2023-07-02T10:59:38;14.05;;;9.70;;
62580;SDS011;48640;48.770;9.148;2023-07-02T11:02:05;13.38;;;9.32;;
62580;SDS011;48640;48.770;9.148;2023-07-02T11:04:32;14.85;;;8.77;;
62580;SDS011;48640;48.770;9.148;2023-07-02T11:06:59;15.68;;;10.02;;
62580;SDS011;48640;48.770;9.148;2023-07-02T11:09:31;14.55;;;9.43;;
62580;SDS011;48640;48.770;9.148;2023-07-02T11:11:59;13.00;;;9.23;;
62580;SDS011;48640;48.770;9.148;2023-07-02T11:14:27;13.82;;;8.70;;
62580;SDS011;48640;48.770;9.148;2023-07-02T11:16:58;13.52;;;9.40;;
62580;SDS011;48640;48.770;9.148;2023-07-02T11:19:28;14.93;;;9.65;;
62580;SDS011;48640;48.770;9.148;2023-07-02T11:22:10;16.52;;;10.60;;
62580;SDS011;48640;48.770;9.148;2023-07-02T11:24:37;14.48;;;9.48;;
62580;SDS011;48640;48.770;9.148;2023-07-02T11:27:05;13.52;;;8.90;;
62580;SDS011;48640;48.770;9.148;2023-07-02T11:29:32;13.27;;;9.30;;
62580;SDS011;48640;48.770;9.148;2023-07-02T11:32:13;12.93;;;9.25;;
62580;SDS011;48640;48.770;9.148;2023-07-02T11:34:52;12.68;;;9.77;;
62580;SDS011;48640;48.770;9.148;2023-07-02T11:37:20;12.25;;;9.05;;
62580;SDS011;48640;48.770;9.148;2023-07-02T11:39:48;15.45;;;9.43;;
62580;SDS011;48640;48.770;9.148;2023-07-02T11:42:15;14.45;;;9.88;;
62580;SDS011;48640;48.770;9.148;2023-07-02T11:44:49;15.88;;;9.63;;
62580;SDS011;48640;48.770;9.148;2023-07-02T11:47:28;12.40;;;9.52;;
62580;SDS011;48640;48.770;9.148;2023-07-02T11:49:56;14.77;;;9.95;;
62580;SDS011;48640;48.770;9.148;2023-07-02T11:52:24;11.82;;;8.63;;
62580;SDS011;48640;48.770;9.148;2023-07-02T11:54:52;14.45;;;9.73;;
62580;SDS011;48640;48.770;9.148;2023-07-02T11:57:19;13.70;;;9.68;;
62580;SDS011;48640;48.770;9.148;2023-07-02T11:59:47;15.05;;;9.60;;
62580;SDS011;48640;48.770;9.148;2023-07-02T12:02:15;13.80;;;10.18;;
62580;SDS011;48640;48.770;9.148;2023-07-02T12:04:46;13.32;;;9.13;;
62580;SDS011;48640;48.770;9.148;2023-07-02T12:07:13;12.88;;;9.25;;
62580;SDS011;48640;48.770;9.148;2023-07-02T12:09:43;15.20;;;9.27;;
62580;SDS011;48640;48.770;9.148;2023-07-02T12:12:13;12.77;;;9.70;;
62580;SDS011;48640;48.770;9.148;2023-07-02T12:14:43;13.43;;;8.80;;
62580;SDS011;48640;48.770;9.148;2023-07-02T12:19:54;12.23;;;8.18;;
62580;SDS011;48640;48.770;9.148;2023-07-02T12:22:22;14.23;;;9.70;;
62580;SDS011;48640;48.770;9.148;2023-07-02T12:24:49;14.95;;;9.52;;
62580;SDS011;48640;48.770;9.148;2023-07-02T12:27:18;13.52;;;9.38;;
62580;SDS011;48640;48.770;9.148;2023-07-02T12:29:45;11.80;;;9.15;;
62580;SDS011;48640;48.770;9.148;2023-07-02T12:32:13;13.35;;;9.80;;
62580;SDS011;48640;48.770;9.148;2023-07-02T12:34:40;15.35;;;9.40;;
62580;SDS011;48640;48.770;9.148;2023-07-02T12:37:09;12.85;;;9.40;;
62580;SDS011;48640;48.770;9.148;2023-07-02T12:39:39;14.75;;;10.05;;
62580;SDS011;48640;48.770;9.148;2023-07-02T12:42:07;15.55;;;9.95;;
62580;SDS011;48640;48.770;9.148;2023-07-02T12:44:35;14.00;;;9.70;;
62580;SDS011;48640;48.770;9.148;2023-07-02T12:47:02;13.82;;;9.45;;
62580;SDS011;48640;48.770;9.148;2023-07-02T12:49:30;14.05;;;9.65;;
62580;SDS011;48640;48.770;9.148;2023-07-02T12:51:57;13.50;;;9.70;;
62580;SDS011;48640;48.770;9.148;2023-07-02T12:54:25;14.77;;;9.52;;
62580;SDS011;48640;48.770;9.148;2023-07-02T12:56:58;13.88;;;9.73;;
62580;SDS011;48640;48.770;9.148;2023-07-02T12:59:34;15.00;;;9.93;;
62580;SDS011;48640;48.770;9.148;2023-07-02T13:02:05;13.82;;;9.82;;
62580;SDS011;48640;48.770;9.148;2023-07-02T13:04:34;13.43;;;9.57;;
62580;SDS011;48640;48.770;9.148;2023-07-02T13:07:02;16.38;;;10.23;;
62580;SDS011;48640;48.770;9.148;2023-07-02T13:09:31;14.43;;;9.35;;
62580;SDS011;48640;48.770;9.148;2023-07-02T13:11:58;15.50;;;10.90;;
62580;SDS011;48640;48.770;9.148;2023-07-02T13:14:26;15.27;;;9.35;;
62580;SDS011;48640;48.770;9.148;2023-07-02T13:16:53;15.70;;;10.40;;
62580;SDS011;48640;48.770;9.148;2023-07-02T13:19:20;13.57;;;10.20;;
62580;SDS011;48640;48.770;9.148;2023-07-02T13:21:47;13.88;;;8.63;;
62580;SDS011;48640;48.770;9.148;2023-07-02T13:24:14;18.98;;;10.40;;
62580;SDS011;48640;48.770;9.148;2023-07-02T13:26:42;15.38;;;10.77;;
62580;SDS011;48640;48.770;9.148;2023-07-02T13:29:09;16.60;;;10.65;;
62580;SDS011;48640;48.770;9.148;2023-07-02T13:31:36;13.90;;;9.32;;
62580;SDS011;48640;48.770;9.148;2023-07-02T13:34:03;13.73;;;9.35;;
62580;SDS011;48640;48.770;9.148;2023-07-02T13:36:30;12.88;;;9.55;;
62580;SDS011;48640;48.770;9.148;2023-07-02T13:38:56;14.85;;;9.55;;
62580;SDS011;48640;48.770;9.148;2023-07-02T13:41:24;18.42;;;10.65;;
62580;SDS011;48640;48.770;9.148;2023-07-02T13:43:53;16.02;;;9.93;;
62580;SDS011;48640;48.770;9.148;2023-07-02T13:46:20;12.85;;;8.93;;
62580;SDS011;48640;48.770;9.148;2023-07-02T13:48:46;15.27;;;9.45;;
62580;SDS011;48640;48.770;9.148;2023-07-02T13:51:13;13.35;;;9.18;;
62580;SDS011;48640;48.770;9.148;2023-07-02T13:53:40;14.30;;;9.15;;
62580;SDS011;48640;48.770;9.148;2023-07-02T13:56:07;13.50;;;9.60;;
62580;SDS011;48640;48.770;9.148;2023-07-02T13:58:58;15.80;;;9.65;;
62580;SDS011;48640;48.770;9.148;2023-07-02T14:01:28;13.30;;;9.77;;
62580;SDS011;48640;48.770;9.148;2023-07-02T14:03:55;15.40;;;10.07;;
62580;SDS011;48640;48.770;9.148;2023-07-02T14:06:24;16.67;;;9.90;;
62580;SDS011;48640;48.770;9.148;2023-07-02T14:08:50;13.38;;;9.57;;
62580;SDS011;48640;48.770;9.148;2023-07-02T14:11:18;15.18;;;10.43;;
62580;SDS011;48640;48.770;9.148;2023-07-02T14:13:45;14.65;;;9.93;;
62580;SDS011;48640;48.770;9.148;2023-07-02T14:16:14;13.75;;;9.32;;
62580;SDS011;48640;48.770;9.148;2023-07-02T14:21:08;15.18;;;9.90;;
62580;SDS011;48640;48.770;9.148;2023-07-02T14:23:38;13.77;;;10.15;;
62580;SDS011;48640;48.770;9.148;2023-07-02T14:26:05;14.07;;;10.25;;
62580;SDS011;48640;48.770;9.148;2023-07-02T14:28:33;13.98;;;9.85;;
62580;SDS011;48640;48.770;9.148;2023-07-02T14:31:00;16.40;;;9.95;;
62580;SDS011;48640;48.770;9.148;2023-07-02T14:33:31;13.27;;;9.68;;
62580;SDS011;48640;48.770;9.148;2023-07-02T14:35:59;18.15;;;10.23;;
62580;SDS011;48640;48.770;9.148;2023-07-02T14:38:27;16.25;;;9.93;;
62580;SDS011;48640;48.770;9.148;2023-07-02T14:40:58;17.55;;;9.75;;
62580;SDS011;48640;48.770;9.148;2023-07-02T14:43:28;14.98;;;9.52;;
62580;SDS011;48640;48.770;9.148;2023-07-02T14:45:56;17.02;;;11.75;;
62580;SDS011;48640;48.770;9.148;2023-07-02T14:48:24;12.75;;;8.43;;
62580;SDS011;48640;48.770;9.148;2023-07-02T14:50:54;16.20;;;9.75;;
62580;SDS011;48640;48.770;9.148;2023-07-02T14:53:23;12.68;;;9.10;;
62580;SDS011;48640;48.770;9.148;2023-07-02T14:55:53;16.17;;;9.75;;
62580;SDS011;48640;48.770;9.148;2023-07-02T14:58:21;15.98;;;11.05;;